X  CloseMetar Aviation Weather Data     ESNL Lycksele

Temperature

1°C Temperature

1°C Dewpoint

100% Humidity



Wind

11 KM/H

 7 MPH

 3 M/S

 6 KTS



130°
South East
Current Conditions

Mostly Scattered Clouds Mostly Scattered Clouds
Pressure 1006.92 (hPa) - 29.73 (in)
Visibility 6.2 (mi) - 10 (km)
Airport
Airport-code ESNL

Location Lycksele 35 (km)

Metar:
ESNL 180950Z AUTO 13006KT 9999 SCT004/// OVC008/// 01/01 Q1007

Time: 2019-10-18 11:50